Emerald Princess — ZCDP8 — position and weather

sailwx.info

Track history (hours):
 
Tides and Currents Weather Stations Pressure Air Temp Water Temp Dewpoint Dewpoint Depression Visibility Wind Speed Wind Dir Waves Ship Positions

Emerald Princess

Last reported at 2020-Apr-01 21:30 UTC. Time now 2020-Apr-03 09:06 UTC.
Position N 26°06' W 079°23'.

Type: Ship. MMSI: 310531000.

Date/timePositionNaut miles runAvg speedWind from/ knotsBaromVisibWave heightAir tempDewpointWater temp
2020-Apr-01 21:30N 26°06' W 079°23'612.5
2020-Apr-01 21:00N 26°00' W 079°26'7 2.8
2020-Apr-01 18:30N 26°03' W 079°33'4 8.6
2020-Apr-01 18:00N 26°07' W 079°31'9 8.5
2020-Apr-01 17:00N 26°15' W 079°29'4 8.8
2020-Apr-01 16:30N 26°19' W 079°28'18 1.9
2020-Apr-01 07:16N 26°37' W 079°28'37 1.6
2020-Mar-31 07:24N 26°06' W 079°05'0 0.0
2020-Mar-31 06:30N 26°06' W 079°05'0 0.0
2020-Mar-31 04:53N 26°06' W 079°05'0 0.0
2020-Mar-31 04:02N 26°06' W 079°05'0 0.0
2020-Mar-31 03:26N 26°06' W 079°05'15 0.4
2020-Mar-29 13:30N 26°11' W 079°21'5 9.7
2020-Mar-29 13:00N 26°16' W 079°21'18 9.5
2020-Mar-29 11:05N 26°34' W 079°26'16 2.0
2020-Mar-29 03:30N 26°18' W 079°29'1313.1
2020-Mar-29 02:30N 26°06' W 079°34'12 4.8
2020-Mar-29 00:00N 25°54' W 079°32'4 8.1
2020-Mar-28 23:30N 25°57' W 079°29'21 7.6
2020-Mar-28 20:49N 26°08' W 079°10'  
2020-Mar-26 10:58N 26°06' W 079°04'0 0.0
2020-Mar-26 10:00N 26°06' W 079°04'0 0.0
2020-Mar-26 07:52N 26°06' W 079°04'0 0.0
2020-Mar-26 06:51N 26°06' W 079°04'0 0.1
2020-Mar-26 06:27N 26°06' W 079°04'17 0.9
2020-Mar-25 10:30N 26°07' W 079°24'2512.5
2020-Mar-25 08:30N 25°44' W 079°34'611.9
2020-Mar-25 08:00N 25°44' W 079°40'23 9.1
2020-Mar-25 05:30N 26°06' W 079°34'4310.2
2020-Mar-25 01:19N 26°49' W 079°30'3 9.1
2020-Mar-25 01:00N 26°51' W 079°29'511.1
2020-Mar-25 00:30N 26°49' W 079°24'3310.8
2020-Mar-24 21:27N 26°27' W 078°56'23 1.7
2020-Mar-24 08:10N 26°22' W 079°21'13 1.5
2020-Mar-23 23:30N 26°33' W 079°28'2710.7
2020-Mar-23 21:00N 26°10' W 079°14'  
Track history (hours):
 
Tides and Currents Weather Stations Pressure Air Temp Water Temp Dewpoint Dewpoint Depression Visibility Wind Speed Wind Dir Waves Ship Positions

Emerald Princess

Last reported at 2020-Apr-01 21:30 UTC. Time now 2020-Apr-03 09:06 UTC.
Position N 26°06' W 079°23'.

Type: Ship. MMSI: 310531000.

Date/timePositionNaut miles runAvg speedWind from/ knotsBaromVisibWave heightAir tempDewpointWater temp
2020-Apr-01 21:30N 26°06' W 079°23'612.5
2020-Apr-01 21:00N 26°00' W 079°26'7 2.8
2020-Apr-01 18:30N 26°03' W 079°33'4 8.6
2020-Apr-01 18:00N 26°07' W 079°31'9 8.5
2020-Apr-01 17:00N 26°15' W 079°29'4 8.8
2020-Apr-01 16:30N 26°19' W 079°28'18 1.9
2020-Apr-01 07:16N 26°37' W 079°28'37 1.6
2020-Mar-31 07:24N 26°06' W 079°05'0 0.0
2020-Mar-31 06:30N 26°06' W 079°05'0 0.0
2020-Mar-31 04:53N 26°06' W 079°05'0 0.0
2020-Mar-31 04:02N 26°06' W 079°05'0 0.0
2020-Mar-31 03:26N 26°06' W 079°05'15 0.4
2020-Mar-29 13:30N 26°11' W 079°21'5 9.7
2020-Mar-29 13:00N 26°16' W 079°21'18 9.5
2020-Mar-29 11:05N 26°34' W 079°26'16 2.0
2020-Mar-29 03:30N 26°18' W 079°29'1313.1
2020-Mar-29 02:30N 26°06' W 079°34'12 4.8
2020-Mar-29 00:00N 25°54' W 079°32'4 8.1
2020-Mar-28 23:30N 25°57' W 079°29'21 7.6
2020-Mar-28 20:49N 26°08' W 079°10'  
2020-Mar-26 10:58N 26°06' W 079°04'0 0.0
2020-Mar-26 10:00N 26°06' W 079°04'0 0.0
2020-Mar-26 07:52N 26°06' W 079°04'0 0.0
2020-Mar-26 06:51N 26°06' W 079°04'0 0.1
2020-Mar-26 06:27N 26°06' W 079°04'17 0.9
2020-Mar-25 10:30N 26°07' W 079°24'2512.5
2020-Mar-25 08:30N 25°44' W 079°34'611.9
2020-Mar-25 08:00N 25°44' W 079°40'23 9.1
2020-Mar-25 05:30N 26°06' W 079°34'4310.2
2020-Mar-25 01:19N 26°49' W 079°30'3 9.1
2020-Mar-25 01:00N 26°51' W 079°29'511.1
2020-Mar-25 00:30N 26°49' W 079°24'3310.8
2020-Mar-24 21:27N 26°27' W 078°56'23 1.7
2020-Mar-24 08:10N 26°22' W 079°21'13 1.5
2020-Mar-23 23:30N 26°33' W 079°28'2710.7
2020-Mar-23 21:00N 26°10' W 079°14'  

Dump ship's entire track history